createdAt,value
2018-06-05T00:00:09.588Z,22.55
2018-06-05T00:02:38.375Z,22.60
2018-06-05T00:05:07.383Z,22.60
2018-06-05T00:07:36.564Z,22.61
2018-06-05T00:10:05.420Z,22.58
2018-06-05T00:12:34.351Z,22.55
2018-06-05T00:15:03.704Z,22.48
2018-06-05T00:17:32.782Z,22.44
2018-06-05T00:20:01.944Z,22.42
2018-06-05T00:22:30.783Z,22.35
2018-06-05T00:24:59.492Z,22.27
2018-06-05T00:27:28.257Z,22.27
2018-06-05T00:29:57.105Z,22.23
2018-06-05T00:32:25.947Z,22.23
2018-06-05T00:34:54.746Z,22.25
2018-06-05T00:37:23.459Z,22.22
2018-06-05T00:39:52.307Z,22.23
2018-06-05T00:42:21.377Z,22.22
2018-06-05T00:44:50.308Z,22.18
2018-06-05T00:47:19.076Z,22.15
2018-06-05T00:49:47.891Z,22.07
2018-06-05T00:52:16.647Z,22.00
2018-06-05T00:54:45.930Z,21.91
2018-06-05T00:57:14.736Z,21.79
2018-06-05T00:59:43.549Z,21.70
2018-06-05T01:02:12.343Z,21.55
2018-06-05T01:04:41.309Z,21.24
2018-06-05T01:07:11.181Z,21.30
2018-06-05T01:09:40.021Z,21.23
2018-06-05T01:12:08.805Z,21.21
2018-06-05T01:14:37.816Z,21.11
2018-06-05T01:17:06.596Z,21.05
2018-06-05T01:19:35.688Z,21.05
2018-06-05T01:22:04.637Z,21.04
2018-06-05T01:27:24.828Z,21.08
2018-06-05T01:29:53.676Z,21.13
2018-06-05T01:32:22.475Z,21.19
2018-06-05T01:34:51.280Z,21.13
2018-06-05T01:37:20.171Z,21.18
2018-06-05T01:39:49.329Z,21.23
2018-06-05T01:42:18.256Z,21.24
2018-06-05T01:44:47.418Z,21.27
2018-06-05T01:47:16.220Z,21.27
2018-06-05T01:49:46.083Z,21.34
2018-06-05T01:52:15.036Z,21.34
2018-06-05T01:54:43.916Z,21.37
2018-06-05T01:57:12.832Z,21.40
2018-06-05T01:59:41.684Z,21.43
2018-06-05T02:02:10.478Z,21.44
2018-06-05T02:04:39.295Z,21.46
2018-06-05T02:07:08.542Z,21.45
2018-06-05T02:09:37.456Z,21.49
2018-06-05T02:12:06.271Z,21.54
2018-06-05T02:14:34.948Z,21.52
2018-06-05T02:17:03.835Z,21.57
2018-06-05T02:19:32.787Z,21.59
2018-06-05T02:22:01.661Z,21.54
2018-06-05T02:24:31.095Z,21.58
2018-06-05T02:26:59.910Z,21.51
2018-06-05T02:29:28.683Z,21.41
2018-06-05T02:31:57.331Z,21.32
2018-06-05T02:34:26.388Z,21.20
2018-06-05T02:36:55.266Z,21.14
2018-06-05T02:39:24.253Z,21.12
2018-06-05T02:41:53.111Z,21.06
2018-06-05T02:44:22.277Z,20.98
2018-06-05T02:46:51.043Z,21.01
2018-06-05T02:49:20.181Z,20.84
2018-06-05T02:51:49.031Z,20.91
2018-06-05T02:54:17.907Z,20.94
2018-06-05T02:56:46.723Z,20.92
2018-06-05T02:59:15.568Z,20.84
2018-06-05T03:01:44.380Z,20.86
2018-06-05T03:04:13.232Z,20.83
2018-06-05T03:06:42.173Z,20.77
2018-06-05T03:09:11.040Z,20.74
2018-06-05T03:11:39.843Z,20.69
2018-06-05T03:14:08.517Z,20.67
2018-06-05T03:16:37.256Z,20.60
2018-06-05T03:19:06.124Z,20.52
2018-06-05T03:21:34.976Z,20.48
2018-06-05T03:24:03.945Z,20.43
2018-06-05T03:26:37.502Z,20.42
2018-06-05T03:29:06.257Z,20.33
2018-06-05T03:31:35.156Z,20.27
2018-06-05T03:34:04.006Z,20.25
2018-06-05T03:36:32.733Z,20.23
2018-06-05T03:39:01.528Z,20.23
2018-06-05T03:41:31.240Z,20.10
2018-06-05T03:44:00.015Z,20.25
2018-06-05T03:46:28.756Z,20.10
2018-06-05T03:48:57.680Z,20.19
2018-06-05T03:51:26.424Z,20.22
2018-06-05T03:53:55.328Z,20.34
2018-06-05T03:56:24.300Z,20.34
2018-06-05T03:58:53.269Z,20.41
2018-06-05T04:01:22.034Z,20.51
2018-06-05T04:03:50.774Z,20.60
2018-06-05T04:06:19.734Z,20.69
2018-06-05T04:08:48.626Z,20.71
2018-06-05T04:11:18.058Z,20.80
2018-06-05T04:13:47.341Z,20.85
2018-06-05T04:16:16.200Z,20.87
2018-06-05T04:18:45.127Z,21.00
2018-06-05T04:21:13.879Z,21.05
2018-06-05T04:23:43.029Z,21.08
2018-06-05T04:26:17.018Z,21.03
2018-06-05T04:28:47.539Z,21.08
2018-06-05T04:31:16.429Z,21.12
2018-06-05T04:33:45.254Z,21.16
2018-06-05T04:36:14.213Z,21.10
2018-06-05T04:38:43.603Z,21.10
2018-06-05T04:41:12.437Z,21.08
2018-06-05T04:43:41.316Z,21.09
2018-06-05T04:46:10.697Z,21.12
2018-06-05T04:48:39.455Z,21.10
2018-06-05T04:51:08.158Z,21.12
2018-06-05T04:53:37.016Z,21.10
2018-06-05T04:56:06.102Z,21.09
2018-06-05T04:58:34.849Z,21.10
2018-06-05T05:01:03.715Z,21.19
2018-06-05T05:03:32.633Z,21.26
2018-06-05T05:06:01.492Z,21.41
2018-06-05T05:08:30.595Z,21.48
2018-06-05T05:10:59.572Z,21.55
2018-06-05T05:13:28.392Z,21.64
2018-06-05T05:15:57.420Z,21.69
2018-06-05T05:18:26.464Z,21.83
2018-06-05T05:20:55.295Z,21.92
2018-06-05T05:23:24.603Z,21.90
2018-06-05T05:25:53.469Z,22.23
2018-06-05T05:28:22.329Z,22.23
2018-06-05T05:30:51.119Z,22.50
2018-06-05T05:33:19.936Z,22.77
2018-06-05T05:35:49.129Z,22.86
2018-06-05T05:38:17.988Z,23.12
2018-06-05T05:40:46.801Z,23.44
2018-06-05T05:43:15.627Z,23.56
2018-06-05T05:45:44.460Z,23.78
2018-06-05T05:48:13.425Z,23.96
2018-06-05T05:50:42.240Z,24.06
2018-06-05T05:53:11.028Z,24.19
2018-06-05T05:55:39.906Z,23.98
2018-06-05T05:58:08.800Z,23.88
2018-06-05T06:00:37.607Z,23.89
2018-06-05T06:03:06.455Z,23.96
2018-06-05T06:05:35.339Z,23.92
2018-06-05T06:08:04.392Z,24.00
2018-06-05T06:10:33.493Z,24.20
2018-06-05T06:13:02.617Z,24.12
2018-06-05T06:15:31.445Z,24.44
2018-06-05T06:18:00.272Z,24.69
2018-06-05T06:20:29.232Z,24.87
2018-06-05T06:22:58.017Z,25.07
2018-06-05T06:25:26.864Z,25.12
2018-06-05T06:27:55.697Z,25.33
2018-06-05T06:30:24.594Z,25.51
2018-06-05T06:32:53.618Z,25.57
2018-06-05T06:35:22.568Z,25.54
2018-06-05T06:37:51.358Z,25.14
2018-06-05T06:40:20.084Z,24.77
2018-06-05T06:42:48.932Z,25.60
2018-06-05T06:45:17.737Z,25.59
2018-06-05T06:47:46.907Z,26.09
2018-06-05T06:50:15.814Z,26.45
2018-06-05T06:52:44.618Z,26.91
2018-06-05T06:55:13.536Z,26.26
2018-06-05T06:57:42.287Z,26.52
2018-06-05T07:00:11.902Z,27.22
2018-06-05T07:02:40.916Z,26.87
2018-06-05T07:05:09.878Z,26.97
2018-06-05T07:07:38.660Z,27.79
2018-06-05T07:10:07.485Z,27.87
2018-06-05T07:12:36.440Z,27.99
2018-06-05T07:15:05.345Z,28.56
2018-06-05T07:17:34.168Z,29.03
2018-06-05T07:20:03.013Z,29.08
2018-06-05T07:22:31.818Z,29.35
2018-06-05T07:25:00.640Z,29.55
2018-06-05T07:27:29.510Z,29.88
2018-06-05T07:29:59.272Z,29.70
2018-06-05T07:32:28.044Z,29.99
2018-06-05T07:34:56.765Z,30.31
2018-06-05T07:37:26.345Z,30.87
2018-06-05T07:39:55.187Z,30.40
2018-06-05T07:42:23.957Z,30.91
2018-06-05T07:44:52.735Z,30.82
2018-06-05T07:47:21.560Z,30.24
2018-06-05T07:49:50.472Z,30.35
2018-06-05T07:52:19.307Z,30.64
2018-06-05T07:54:48.153Z,30.77
2018-06-05T07:57:16.996Z,30.74
2018-06-05T07:59:45.769Z,31.32
2018-06-05T08:02:14.497Z,31.84
2018-06-05T08:04:43.349Z,32.14
2018-06-05T08:07:12.155Z,32.11
2018-06-05T08:09:41.031Z,32.34
2018-06-05T08:12:09.825Z,32.68
2018-06-05T08:14:38.656Z,33.30
2018-06-05T08:17:07.779Z,33.44
2018-06-05T08:19:36.600Z,33.31
2018-06-05T08:22:05.585Z,33.26
2018-06-05T08:24:34.807Z,33.27
2018-06-05T08:27:03.660Z,33.21
2018-06-05T08:29:32.681Z,32.96
2018-06-05T08:32:01.702Z,32.89
2018-06-05T08:34:30.553Z,33.33
2018-06-05T08:36:59.344Z,33.52
2018-06-05T08:39:28.381Z,33.89
2018-06-05T08:41:57.112Z,33.90
2018-06-05T08:44:25.902Z,34.51
2018-06-05T08:46:54.627Z,34.38
2018-06-05T08:49:23.383Z,34.98
2018-06-05T08:51:52.495Z,35.11
2018-06-05T08:54:21.702Z,35.50
2018-06-05T08:56:50.873Z,36.15
2018-06-05T08:59:19.649Z,36.35
2018-06-05T09:01:48.367Z,36.62
2018-06-05T09:04:17.598Z,35.83
2018-06-05T09:06:46.431Z,35.15
2018-06-05T09:09:15.527Z,35.18
2018-06-05T09:11:44.320Z,35.81
2018-06-05T09:14:13.208Z,35.94
2018-06-05T09:16:43.317Z,36.65
2018-06-05T09:19:12.224Z,36.64
2018-06-05T09:21:41.009Z,37.13
2018-06-05T09:24:09.724Z,36.96
2018-06-05T09:26:38.603Z,36.32
2018-06-05T09:29:07.514Z,35.73
2018-06-05T09:31:36.451Z,35.44
2018-06-05T09:34:06.449Z,35.29
2018-06-05T09:36:35.173Z,35.80
2018-06-05T09:39:04.212Z,36.56
2018-06-05T09:41:32.947Z,37.41
2018-06-05T09:44:01.745Z,36.66
2018-06-05T09:46:30.756Z,37.93
2018-06-05T09:48:59.529Z,39.28
2018-06-05T09:51:28.272Z,37.94
2018-06-05T09:53:57.203Z,37.20
2018-06-05T09:56:26.820Z,38.49
2018-06-05T09:58:55.616Z,39.90
2018-06-05T10:01:24.563Z,40.58
2018-06-05T10:03:53.396Z,41.34
2018-06-05T10:06:22.082Z,40.51
2018-06-05T10:08:50.972Z,41.85
2018-06-05T10:11:19.596Z,41.07
2018-06-05T10:13:48.272Z,41.90
2018-06-05T10:16:17.136Z,41.96
2018-06-05T10:18:45.999Z,43.10
2018-06-05T10:21:15.156Z,43.33
2018-06-05T10:23:43.956Z,42.69
2018-06-05T10:26:12.769Z,42.20
2018-06-05T10:28:41.859Z,43.17
2018-06-05T10:31:10.684Z,42.66
2018-06-05T10:33:39.821Z,42.47
2018-06-05T10:36:09.424Z,42.04
2018-06-05T10:38:39.107Z,41.94
2018-06-05T10:41:07.966Z,41.83
2018-06-05T10:43:36.753Z,43.08
2018-06-05T10:46:05.810Z,43.51
2018-06-05T10:48:34.632Z,44.07
2018-06-05T10:51:03.827Z,44.74
2018-06-05T10:53:32.616Z,46.06
2018-06-05T10:56:01.660Z,47.27
2018-06-05T10:58:30.710Z,47.21
2018-06-05T11:00:59.538Z,44.26
2018-06-05T11:03:28.335Z,43.18
2018-06-05T11:05:57.212Z,43.25
2018-06-05T11:08:26.036Z,43.26
2018-06-05T11:10:54.851Z,45.44
2018-06-05T11:13:23.745Z,45.32
2018-06-05T11:15:52.575Z,45.37
2018-06-05T11:18:21.468Z,45.46
2018-06-05T11:20:50.318Z,46.00
2018-06-05T11:23:19.019Z,47.01
2018-06-05T11:25:47.783Z,46.77
2018-06-05T11:28:16.576Z,48.02
2018-06-05T11:30:45.359Z,46.66
2018-06-05T11:33:14.134Z,47.45
2018-06-05T11:35:42.944Z,47.55
2018-06-05T11:38:11.868Z,46.34
2018-06-05T11:40:40.627Z,47.33
2018-06-05T11:43:09.404Z,47.70
2018-06-05T11:45:38.101Z,46.05
2018-06-05T11:48:07.104Z,45.99
2018-06-05T11:50:35.870Z,45.79
2018-06-05T11:53:04.980Z,47.04
2018-06-05T11:55:33.890Z,46.94
2018-06-05T11:58:02.874Z,47.03
2018-06-05T12:00:31.685Z,47.73
2018-06-05T12:03:00.532Z,47.89
2018-06-05T12:05:29.308Z,48.62
2018-06-05T12:08:00.204Z,47.32
2018-06-05T12:10:28.941Z,47.82
2018-06-05T12:12:57.856Z,48.25
2018-06-05T12:15:26.587Z,47.71
2018-06-05T12:17:55.828Z,47.49
2018-06-05T12:20:24.831Z,47.71
2018-06-05T12:22:53.636Z,48.05
2018-06-05T12:25:22.595Z,48.66
2018-06-05T12:27:51.379Z,49.80
2018-06-05T12:30:20.412Z,48.47
2018-06-05T12:32:49.128Z,48.66
2018-06-05T12:35:18.006Z,49.02
2018-06-05T12:37:46.882Z,49.40
2018-06-05T12:40:15.780Z,48.42
2018-06-05T12:42:44.724Z,48.45
2018-06-05T12:45:13.626Z,47.52
2018-06-05T12:47:42.464Z,47.56
2018-06-05T12:50:11.259Z,46.81
2018-06-05T12:52:40.305Z,47.06
2018-06-05T12:55:09.067Z,46.37
2018-06-05T12:57:37.963Z,45.67
2018-06-05T13:00:06.888Z,42.32
2018-06-05T13:02:35.652Z,40.69
2018-06-05T13:05:04.844Z,39.17
2018-06-05T13:07:33.760Z,40.61
2018-06-05T13:10:02.728Z,41.58
2018-06-05T13:12:31.467Z,42.71
2018-06-05T13:15:00.256Z,42.73
2018-06-05T13:17:29.615Z,43.48
2018-06-05T13:19:58.491Z,44.04
2018-06-05T13:22:27.568Z,44.17
2018-06-05T13:24:56.328Z,44.73
2018-06-05T13:27:25.387Z,44.54
2018-06-05T13:29:54.317Z,44.78
2018-06-05T13:32:23.252Z,44.11
2018-06-05T13:34:52.331Z,44.71
2018-06-05T13:37:21.196Z,44.47
2018-06-05T13:39:50.134Z,44.69
2018-06-05T13:42:19.020Z,42.34
2018-06-05T13:44:47.847Z,41.04
2018-06-05T13:47:17.155Z,39.47
2018-06-05T13:49:46.158Z,40.03
2018-06-05T13:52:15.216Z,40.96
2018-06-05T13:54:44.024Z,41.04
2018-06-05T13:57:13.387Z,41.24
2018-06-05T13:59:42.216Z,41.70
2018-06-05T14:02:11.076Z,40.53
2018-06-05T14:04:39.791Z,39.52
2018-06-05T14:07:09.192Z,38.49
2018-06-05T14:09:38.359Z,37.79
2018-06-05T14:12:07.728Z,37.63
2018-06-05T14:14:37.640Z,38.55
2018-06-05T14:17:06.925Z,39.46
2018-06-05T14:19:35.953Z,40.05
2018-06-05T14:22:04.885Z,39.67
2018-06-05T14:24:33.940Z,39.47
2018-06-05T14:27:02.640Z,38.47
2018-06-05T14:29:31.525Z,36.78
2018-06-05T14:32:01.030Z,35.75
2018-06-05T14:34:30.344Z,35.00
2018-06-05T14:36:59.149Z,34.78
2018-06-05T14:39:28.114Z,35.53
2018-06-05T14:41:57.000Z,36.01
2018-06-05T14:44:25.927Z,37.70
2018-06-05T14:46:54.736Z,37.79
2018-06-05T14:49:23.827Z,38.10
2018-06-05T14:51:52.695Z,37.77
2018-06-05T14:54:21.857Z,38.25
2018-06-05T14:56:50.957Z,38.68
2018-06-05T14:59:19.883Z,38.74
2018-06-05T15:01:48.736Z,37.72
2018-06-05T15:04:17.736Z,37.98
2018-06-05T15:06:46.658Z,38.05
2018-06-05T15:09:15.718Z,37.41
2018-06-05T15:11:44.613Z,37.40
2018-06-05T15:14:13.331Z,37.57
2018-06-05T15:16:42.828Z,37.00
2018-06-05T15:19:11.696Z,36.77
2018-06-05T15:21:41.039Z,36.15
2018-06-05T15:24:10.159Z,36.14
2018-06-05T15:26:39.088Z,35.78
2018-06-05T15:29:07.960Z,35.58
2018-06-05T15:31:37.075Z,35.35
2018-06-05T15:34:06.311Z,34.55
2018-06-05T15:36:35.352Z,34.15
2018-06-05T15:39:05.972Z,33.75
2018-06-05T15:41:35.431Z,33.13
2018-06-05T15:44:04.251Z,32.23
2018-06-05T15:46:33.173Z,32.20
2018-06-05T15:49:02.377Z,31.93
2018-06-05T15:51:31.192Z,31.65
2018-06-05T15:53:59.904Z,31.40
2018-06-05T15:56:28.948Z,31.19
2018-06-05T15:58:57.928Z,31.07
2018-06-05T16:01:26.722Z,30.89
2018-06-05T16:03:55.880Z,30.83
2018-06-05T16:06:24.700Z,30.80
2018-06-05T16:08:54.030Z,30.60
2018-06-05T16:11:22.809Z,30.45
2018-06-05T16:13:51.796Z,30.30
2018-06-05T16:16:20.583Z,30.27
2018-06-05T16:18:49.384Z,30.19
2018-06-05T16:21:19.110Z,30.16
2018-06-05T16:23:47.869Z,29.98
2018-06-05T16:26:16.804Z,30.13
2018-06-05T16:28:45.745Z,30.18
2018-06-05T16:31:15.397Z,30.19
2018-06-05T16:33:44.513Z,30.26
2018-06-05T16:36:13.706Z,30.28
2018-06-05T16:38:43.116Z,30.33
2018-06-05T16:41:12.125Z,30.35
2018-06-05T16:43:41.154Z,30.37
2018-06-05T16:46:10.133Z,30.38
2018-06-05T16:48:39.129Z,29.73
2018-06-05T16:51:08.101Z,29.81
2018-06-05T16:53:37.213Z,29.71
2018-06-05T16:56:06.316Z,29.76
2018-06-05T16:58:35.297Z,29.81
2018-06-05T17:01:04.387Z,29.95
2018-06-05T17:03:33.208Z,30.07
2018-06-05T17:06:02.284Z,30.16
2018-06-05T17:08:30.952Z,30.24
2018-06-05T17:10:59.716Z,30.23
2018-06-05T17:13:28.932Z,30.25
2018-06-05T17:15:57.884Z,30.26
2018-06-05T17:18:27.013Z,30.28
2018-06-05T17:20:55.960Z,30.10
2018-06-05T17:23:25.048Z,30.17
2018-06-05T17:25:54.056Z,30.13
2018-06-05T17:28:23.049Z,30.17
2018-06-05T17:30:51.915Z,30.18
2018-06-05T17:33:20.824Z,30.14
2018-06-05T17:35:51.601Z,30.12
2018-06-05T17:38:21.364Z,30.14
2018-06-05T17:40:50.145Z,30.11
2018-06-05T17:43:19.264Z,30.08
2018-06-05T17:45:48.293Z,30.00
2018-06-05T17:48:17.116Z,29.95
2018-06-05T17:50:46.033Z,29.76
2018-06-05T17:53:14.994Z,29.62
2018-06-05T17:55:43.880Z,29.58
2018-06-05T17:58:12.875Z,29.56
2018-06-05T18:00:41.795Z,29.31
2018-06-05T18:03:10.611Z,29.21
2018-06-05T18:05:39.502Z,29.13
2018-06-05T18:08:08.332Z,28.92
2018-06-05T18:10:37.221Z,28.60
2018-06-05T18:13:06.124Z,28.74
2018-06-05T18:15:35.120Z,28.60
2018-06-05T18:18:03.931Z,28.55
2018-06-05T18:20:32.747Z,28.54
2018-06-05T18:23:02.419Z,28.27
2018-06-05T18:25:31.940Z,28.20
2018-06-05T18:28:00.923Z,28.02
2018-06-05T18:30:29.732Z,28.19
2018-06-05T18:32:59.055Z,28.09
2018-06-05T18:35:28.343Z,28.04
2018-06-05T18:37:57.469Z,28.03
2018-06-05T18:40:26.284Z,27.94
2018-06-05T18:42:55.184Z,27.97
2018-06-05T18:45:24.323Z,27.96
2018-06-05T18:47:53.365Z,27.81
2018-06-05T18:50:22.549Z,27.85
2018-06-05T18:52:51.766Z,27.80
2018-06-05T18:55:20.871Z,27.84
2018-06-05T18:57:49.808Z,27.66
2018-06-05T19:00:18.665Z,27.66
2018-06-05T19:02:47.824Z,27.58
2018-06-05T19:05:17.352Z,27.51
2018-06-05T19:07:46.246Z,27.41
2018-06-05T19:10:15.217Z,27.34
2018-06-05T19:12:43.985Z,27.11
2018-06-05T19:15:12.921Z,27.08
2018-06-05T19:17:42.297Z,27.06
2018-06-05T19:20:11.216Z,26.96
2018-06-05T19:22:40.445Z,26.87
2018-06-05T19:25:09.814Z,26.77
2018-06-05T19:27:38.685Z,26.67
2018-06-05T19:30:07.681Z,26.57
2018-06-05T19:32:36.433Z,26.48
2018-06-05T19:35:05.472Z,26.39
2018-06-05T19:37:34.767Z,26.34
2018-06-05T19:40:04.017Z,26.27
2018-06-05T19:42:32.832Z,26.24
2018-06-05T19:45:01.697Z,26.18
2018-06-05T19:47:30.484Z,26.09
2018-06-05T19:49:59.448Z,26.04
2018-06-05T19:52:28.301Z,25.99
2018-06-05T19:54:57.088Z,25.94
2018-06-05T19:57:26.103Z,25.87
2018-06-05T19:59:54.992Z,25.81
2018-06-05T20:02:24.008Z,25.74
2018-06-05T20:04:52.773Z,25.71
2018-06-05T20:07:21.636Z,25.67
2018-06-05T20:09:50.460Z,25.61
2018-06-05T20:12:19.410Z,25.57
2018-06-05T20:14:48.671Z,25.53
2018-06-05T20:17:17.526Z,25.49
2018-06-05T20:19:47.446Z,25.46
2018-06-05T20:22:16.356Z,25.40
2018-06-05T20:24:45.213Z,25.33
2018-06-05T20:27:14.390Z,25.27
2018-06-05T20:29:43.296Z,25.23
2018-06-05T20:32:11.975Z,25.18
2018-06-05T20:34:43.325Z,25.15
2018-06-05T20:37:12.662Z,25.10
2018-06-05T20:39:42.380Z,25.07
2018-06-05T20:42:11.492Z,25.01
2018-06-05T20:44:41.794Z,24.99
2018-06-05T20:47:11.465Z,24.94
2018-06-05T20:49:41.637Z,24.93
2018-06-05T20:52:10.912Z,24.87
2018-06-05T20:54:40.184Z,24.86
2018-06-05T20:57:10.604Z,24.82
2018-06-05T20:59:41.714Z,24.78
2018-06-05T21:02:10.778Z,24.74
2018-06-05T21:04:39.644Z,24.70
2018-06-05T21:07:09.755Z,24.67
2018-06-05T21:09:38.444Z,24.59
2018-06-05T21:12:07.307Z,24.59
2018-06-05T21:14:37.206Z,24.54
2018-06-05T21:17:06.237Z,24.47
2018-06-05T21:19:34.936Z,24.39
2018-06-05T21:22:04.827Z,24.31
2018-06-05T21:24:33.749Z,24.18
2018-06-05T21:27:02.620Z,24.15
2018-06-05T21:29:31.305Z,24.09
2018-06-05T21:32:00.000Z,23.99
2018-06-05T21:34:28.969Z,23.96
2018-06-05T21:36:58.080Z,23.92
2018-06-05T21:39:28.035Z,23.86
2018-06-05T21:41:57.196Z,23.84
2018-06-05T21:44:26.000Z,23.82
2018-06-05T21:46:55.244Z,23.82
2018-06-05T21:49:24.116Z,23.76
2018-06-05T21:51:53.013Z,23.75
2018-06-05T21:54:21.973Z,23.74
2018-06-05T21:56:50.931Z,23.73
2018-06-05T21:59:19.825Z,23.70
2018-06-05T22:01:49.232Z,23.70
2018-06-05T22:04:18.116Z,23.66
2018-06-05T22:06:46.923Z,23.65
2018-06-05T22:09:15.828Z,23.59
2018-06-05T22:11:44.664Z,23.58
2018-06-05T22:14:13.603Z,23.55
2018-06-05T22:16:42.715Z,23.54
2018-06-05T22:19:13.577Z,23.54
2018-06-05T22:21:43.063Z,23.48
2018-06-05T22:24:12.577Z,23.43
2018-06-05T22:26:41.545Z,23.40
2018-06-05T22:29:10.354Z,23.40
2018-06-05T22:31:39.306Z,23.41
2018-06-05T22:34:08.948Z,23.36
2018-06-05T22:36:38.320Z,23.35
2018-06-05T22:39:07.968Z,23.37
2018-06-05T22:41:36.839Z,23.33
2018-06-05T22:44:05.909Z,23.35
2018-06-05T22:46:34.948Z,23.28
2018-06-05T22:49:03.899Z,23.22
2018-06-05T22:51:32.712Z,23.20
2018-06-05T22:54:01.717Z,23.16
2018-06-05T22:56:30.576Z,23.12
2018-06-05T22:58:59.825Z,23.14
2018-06-05T23:01:28.715Z,23.11
2018-06-05T23:03:57.896Z,23.07
2018-06-05T23:06:28.779Z,23.04
2018-06-05T23:08:58.403Z,23.03
2018-06-05T23:11:27.300Z,23.04
2018-06-05T23:13:56.216Z,23.02
2018-06-05T23:16:25.127Z,22.97
2018-06-05T23:18:53.859Z,22.97
2018-06-05T23:21:22.739Z,22.98
2018-06-05T23:23:51.461Z,22.98
2018-06-05T23:26:20.237Z,22.95
2018-06-05T23:28:48.947Z,22.92
2018-06-05T23:31:17.720Z,22.86
2018-06-05T23:33:46.524Z,22.84
2018-06-05T23:36:15.493Z,22.82
2018-06-05T23:38:44.265Z,22.75
2018-06-05T23:41:13.080Z,22.68
2018-06-05T23:43:41.946Z,22.66
2018-06-05T23:46:10.900Z,22.63
2018-06-05T23:48:39.624Z,22.61
2018-06-05T23:51:08.543Z,22.60
2018-06-05T23:53:37.431Z,22.58
2018-06-05T23:56:06.196Z,22.56
2018-06-05T23:58:35.142Z,22.53
